sensor_id;sensor_type;location;lat;lon;timestamp;P1;durP1;ratioP1;P2;durP2;ratioP2
52926;SDS011;40783;49.710;8.842;2023-03-05T00:00:46;39.50;;;17.95;;
52926;SDS011;40783;49.710;8.842;2023-03-05T00:03:11;38.67;;;20.33;;
52926;SDS011;40783;49.710;8.842;2023-03-05T00:05:39;36.13;;;22.93;;
52926;SDS011;40783;49.710;8.842;2023-03-05T00:08:04;43.20;;;21.50;;
52926;SDS011;40783;49.710;8.842;2023-03-05T00:10:30;29.60;;;18.20;;
52926;SDS011;40783;49.710;8.842;2023-03-05T00:12:57;30.77;;;18.95;;
52926;SDS011;40783;49.710;8.842;2023-03-05T00:15:22;43.47;;;19.77;;
52926;SDS011;40783;49.710;8.842;2023-03-05T00:17:48;30.23;;;17.33;;
52926;SDS011;40783;49.710;8.842;2023-03-05T00:20:13;41.90;;;18.23;;
52926;SDS011;40783;49.710;8.842;2023-03-05T00:22:39;48.73;;;19.23;;
52926;SDS011;40783;49.710;8.842;2023-03-05T00:25:04;27.00;;;16.40;;
52926;SDS011;40783;49.710;8.842;2023-03-05T00:27:32;36.92;;;19.38;;
52926;SDS011;40783;49.710;8.842;2023-03-05T00:30:00;34.17;;;18.80;;
52926;SDS011;40783;49.710;8.842;2023-03-05T00:32:25;30.33;;;15.53;;
52926;SDS011;40783;49.710;8.842;2023-03-05T00:34:53;29.95;;;18.45;;
52926;SDS011;40783;49.710;8.842;2023-03-05T00:37:18;38.00;;;18.77;;
52926;SDS011;40783;49.710;8.842;2023-03-05T00:39:43;34.00;;;19.93;;
52926;SDS011;40783;49.710;8.842;2023-03-05T00:42:11;22.35;;;14.63;;
52926;SDS011;40783;49.710;8.842;2023-03-05T00:44:38;26.10;;;15.80;;
52926;SDS011;40783;49.710;8.842;2023-03-05T00:47:04;31.20;;;17.30;;
52926;SDS011;40783;49.710;8.842;2023-03-05T00:49:31;27.50;;;14.70;;
52926;SDS011;40783;49.710;8.842;2023-03-05T00:51:57;34.00;;;18.80;;
52926;SDS011;40783;49.710;8.842;2023-03-05T00:54:22;29.77;;;16.47;;
52926;SDS011;40783;49.710;8.842;2023-03-05T00:56:47;30.23;;;19.10;;
52926;SDS011;40783;49.710;8.842;2023-03-05T00:59:13;36.10;;;19.20;;
52926;SDS011;40783;49.710;8.842;2023-03-05T01:01:38;32.17;;;20.00;;
52926;SDS011;40783;49.710;8.842;2023-03-05T01:04:04;27.30;;;17.98;;
52926;SDS011;40783;49.710;8.842;2023-03-05T01:06:29;27.20;;;17.93;;
52926;SDS011;40783;49.710;8.842;2023-03-05T01:08:57;33.85;;;18.13;;
52926;SDS011;40783;49.710;8.842;2023-03-05T01:11:23;29.60;;;16.95;;
52926;SDS011;40783;49.710;8.842;2023-03-05T01:13:49;23.00;;;15.57;;
52926;SDS011;40783;49.710;8.842;2023-03-05T01:16:14;25.43;;;17.37;;
52926;SDS011;40783;49.710;8.842;2023-03-05T01:18:39;46.47;;;19.23;;
52926;SDS011;40783;49.710;8.842;2023-03-05T01:21:05;34.57;;;18.93;;
52926;SDS011;40783;49.710;8.842;2023-03-05T01:23:30;30.03;;;16.90;;
52926;SDS011;40783;49.710;8.842;2023-03-05T01:25:58;29.65;;;16.77;;
52926;SDS011;40783;49.710;8.842;2023-03-05T01:28:24;23.15;;;16.65;;
52926;SDS011;40783;49.710;8.842;2023-03-05T01:30:50;35.80;;;18.80;;
52926;SDS011;40783;49.710;8.842;2023-03-05T01:33:18;29.90;;;18.08;;
52926;SDS011;40783;49.710;8.842;2023-03-05T01:35:47;30.23;;;17.50;;
52926;SDS011;40783;49.710;8.842;2023-03-05T01:38:13;30.65;;;17.27;;
52926;SDS011;40783;49.710;8.842;2023-03-05T01:40:46;30.02;;;20.77;;
52926;SDS011;40783;49.710;8.842;2023-03-05T01:45:37;32.50;;;18.00;;
52926;SDS011;40783;49.710;8.842;2023-03-05T01:48:04;37.97;;;19.65;;
52926;SDS011;40783;49.710;8.842;2023-03-05T01:50:32;32.67;;;17.57;;
52926;SDS011;40783;49.710;8.842;2023-03-05T01:53:00;41.90;;;20.08;;
52926;SDS011;40783;49.710;8.842;2023-03-05T01:55:29;27.50;;;15.70;;
52926;SDS011;40783;49.710;8.842;2023-03-05T01:57:59;26.00;;;15.63;;
52926;SDS011;40783;49.710;8.842;2023-03-05T02:00:30;27.60;;;15.75;;
52926;SDS011;40783;49.710;8.842;2023-03-05T02:03:04;40.63;;;18.33;;
52926;SDS011;40783;49.710;8.842;2023-03-05T02:05:36;23.35;;;15.05;;
52926;SDS011;40783;49.710;8.842;2023-03-05T02:08:04;22.33;;;14.80;;
52926;SDS011;40783;49.710;8.842;2023-03-05T02:10:42;20.92;;;13.55;;
52926;SDS011;40783;49.710;8.842;2023-03-05T02:13:11;26.73;;;14.77;;
52926;SDS011;40783;49.710;8.842;2023-03-05T02:15:40;30.52;;;13.07;;
52926;SDS011;40783;49.710;8.842;2023-03-05T02:18:06;23.40;;;14.48;;
52926;SDS011;40783;49.710;8.842;2023-03-05T02:20:44;21.80;;;13.73;;
52926;SDS011;40783;49.710;8.842;2023-03-05T02:23:12;29.77;;;12.80;;
52926;SDS011;40783;49.710;8.842;2023-03-05T02:25:38;27.50;;;13.80;;
52926;SDS011;40783;49.710;8.842;2023-03-05T02:30:41;19.20;;;13.25;;
52926;SDS011;40783;49.710;8.842;2023-03-05T02:33:09;17.45;;;12.07;;
52926;SDS011;40783;49.710;8.842;2023-03-05T02:35:35;20.17;;;13.17;;
52926;SDS011;40783;49.710;8.842;2023-03-05T02:38:00;21.20;;;13.17;;
52926;SDS011;40783;49.710;8.842;2023-03-05T02:40:26;20.43;;;13.23;;
52926;SDS011;40783;49.710;8.842;2023-03-05T02:42:51;18.40;;;11.23;;
52926;SDS011;40783;49.710;8.842;2023-03-05T02:45:16;21.30;;;11.83;;
52926;SDS011;40783;49.710;8.842;2023-03-05T02:47:42;17.10;;;9.67;;
52926;SDS011;40783;49.710;8.842;2023-03-05T02:50:08;26.00;;;12.93;;
52926;SDS011;40783;49.710;8.842;2023-03-05T02:52:34;17.33;;;11.65;;
52926;SDS011;40783;49.710;8.842;2023-03-05T02:54:59;22.83;;;11.93;;
52926;SDS011;40783;49.710;8.842;2023-03-05T02:57:27;23.92;;;12.02;;
52926;SDS011;40783;49.710;8.842;2023-03-05T02:59:55;19.85;;;12.15;;
52926;SDS011;40783;49.710;8.842;2023-03-05T03:02:22;18.88;;;9.82;;
52926;SDS011;40783;49.710;8.842;2023-03-05T03:04:48;18.90;;;11.33;;
52926;SDS011;40783;49.710;8.842;2023-03-05T03:07:13;16.53;;;8.70;;
52926;SDS011;40783;49.710;8.842;2023-03-05T03:09:42;17.02;;;8.93;;
52926;SDS011;40783;49.710;8.842;2023-03-05T03:12:08;17.73;;;8.50;;
52926;SDS011;40783;49.710;8.842;2023-03-05T03:14:35;16.25;;;9.10;;
52926;SDS011;40783;49.710;8.842;2023-03-05T03:17:16;16.15;;;9.25;;
52926;SDS011;40783;49.710;8.842;2023-03-05T03:19:42;12.50;;;7.35;;
52926;SDS011;40783;49.710;8.842;2023-03-05T03:24:35;15.90;;;6.82;;
52926;SDS011;40783;49.710;8.842;2023-03-05T03:27:02;16.75;;;9.75;;
52926;SDS011;40783;49.710;8.842;2023-03-05T03:29:28;13.75;;;7.97;;
52926;SDS011;40783;49.710;8.842;2023-03-05T03:34:20;17.80;;;8.88;;
52926;SDS011;40783;49.710;8.842;2023-03-05T03:36:46;21.40;;;11.60;;
52926;SDS011;40783;49.710;8.842;2023-03-05T03:39:13;21.23;;;13.65;;
52926;SDS011;40783;49.710;8.842;2023-03-05T03:41:43;35.13;;;15.20;;
52926;SDS011;40783;49.710;8.842;2023-03-05T03:44:11;23.83;;;13.85;;
52926;SDS011;40783;49.710;8.842;2023-03-05T03:46:41;30.80;;;15.07;;
52926;SDS011;40783;49.710;8.842;2023-03-05T03:49:12;26.80;;;14.43;;
52926;SDS011;40783;49.710;8.842;2023-03-05T03:51:42;26.17;;;16.83;;
52926;SDS011;40783;49.710;8.842;2023-03-05T03:54:11;26.35;;;15.43;;
52926;SDS011;40783;49.710;8.842;2023-03-05T03:56:43;30.05;;;14.18;;
52926;SDS011;40783;49.710;8.842;2023-03-05T03:59:09;22.83;;;14.07;;
52926;SDS011;40783;49.710;8.842;2023-03-05T04:01:37;38.40;;;16.83;;
52926;SDS011;40783;49.710;8.842;2023-03-05T04:04:03;25.83;;;14.67;;
52926;SDS011;40783;49.710;8.842;2023-03-05T04:06:31;26.52;;;15.30;;
52926;SDS011;40783;49.710;8.842;2023-03-05T04:08:57;27.13;;;17.13;;
52926;SDS011;40783;49.710;8.842;2023-03-05T04:11:23;33.50;;;15.83;;
52926;SDS011;40783;49.710;8.842;2023-03-05T04:13:50;29.02;;;18.25;;
52926;SDS011;40783;49.710;8.842;2023-03-05T04:16:16;29.37;;;16.63;;
52926;SDS011;40783;49.710;8.842;2023-03-05T04:18:43;27.50;;;14.95;;
52926;SDS011;40783;49.710;8.842;2023-03-05T04:21:11;29.83;;;17.73;;
52926;SDS011;40783;49.710;8.842;2023-03-05T04:23:38;26.73;;;15.00;;
52926;SDS011;40783;49.710;8.842;2023-03-05T04:26:03;26.73;;;14.45;;
52926;SDS011;40783;49.710;8.842;2023-03-05T04:28:31;22.42;;;14.65;;
52926;SDS011;40783;49.710;8.842;2023-03-05T04:30:59;29.08;;;16.00;;
52926;SDS011;40783;49.710;8.842;2023-03-05T04:33:25;31.27;;;16.77;;
52926;SDS011;40783;49.710;8.842;2023-03-05T04:35:50;25.10;;;13.73;;
52926;SDS011;40783;49.710;8.842;2023-03-05T04:38:18;28.98;;;14.68;;
52926;SDS011;40783;49.710;8.842;2023-03-05T04:40:44;25.83;;;14.60;;
52926;SDS011;40783;49.710;8.842;2023-03-05T04:43:11;23.55;;;14.32;;
52926;SDS011;40783;49.710;8.842;2023-03-05T04:45:40;25.73;;;16.40;;
52926;SDS011;40783;49.710;8.842;2023-03-05T04:48:07;32.58;;;13.95;;
52926;SDS011;40783;49.710;8.842;2023-03-05T04:50:35;25.35;;;14.60;;
52926;SDS011;40783;49.710;8.842;2023-03-05T04:53:03;17.57;;;12.00;;
52926;SDS011;40783;49.710;8.842;2023-03-05T04:55:29;18.10;;;10.48;;
52926;SDS011;40783;49.710;8.842;2023-03-05T04:57:55;23.93;;;14.63;;
52926;SDS011;40783;49.710;8.842;2023-03-05T05:00:20;18.10;;;9.83;;
52926;SDS011;40783;49.710;8.842;2023-03-05T05:02:48;13.43;;;7.85;;
52926;SDS011;40783;49.710;8.842;2023-03-05T05:05:18;17.33;;;9.10;;
52926;SDS011;40783;49.710;8.842;2023-03-05T05:07:45;13.52;;;7.57;;
52926;SDS011;40783;49.710;8.842;2023-03-05T05:10:11;12.73;;;7.83;;
52926;SDS011;40783;49.710;8.842;2023-03-05T05:12:38;12.90;;;7.43;;
52926;SDS011;40783;49.710;8.842;2023-03-05T05:15:03;21.47;;;10.83;;
52926;SDS011;40783;49.710;8.842;2023-03-05T05:17:32;13.55;;;9.00;;
52926;SDS011;40783;49.710;8.842;2023-03-05T05:20:00;20.60;;;9.70;;
52926;SDS011;40783;49.710;8.842;2023-03-05T05:22:27;18.75;;;10.30;;
52926;SDS011;40783;49.710;8.842;2023-03-05T05:24:55;20.40;;;10.20;;
52926;SDS011;40783;49.710;8.842;2023-03-05T05:27:21;16.27;;;9.10;;
52926;SDS011;40783;49.710;8.842;2023-03-05T05:29:46;22.38;;;10.70;;
52926;SDS011;40783;49.710;8.842;2023-03-05T05:32:14;21.23;;;9.38;;
52926;SDS011;40783;49.710;8.842;2023-03-05T05:37:06;14.10;;;8.33;;
52926;SDS011;40783;49.710;8.842;2023-03-05T05:39:33;17.75;;;9.98;;
52926;SDS011;40783;49.710;8.842;2023-03-05T05:41:59;14.50;;;8.80;;
52926;SDS011;40783;49.710;8.842;2023-03-05T05:44:26;26.07;;;10.60;;
52926;SDS011;40783;49.710;8.842;2023-03-05T05:46:52;15.10;;;10.48;;
52926;SDS011;40783;49.710;8.842;2023-03-05T05:49:17;12.50;;;7.70;;
52926;SDS011;40783;49.710;8.842;2023-03-05T05:51:42;12.97;;;8.40;;
52926;SDS011;40783;49.710;8.842;2023-03-05T05:54:10;15.93;;;6.93;;
52926;SDS011;40783;49.710;8.842;2023-03-05T05:56:39;16.95;;;9.05;;
52926;SDS011;40783;49.710;8.842;2023-03-05T05:59:05;22.30;;;9.05;;
52926;SDS011;40783;49.710;8.842;2023-03-05T06:01:31;15.30;;;8.13;;
52926;SDS011;40783;49.710;8.842;2023-03-05T06:03:57;16.58;;;9.80;;
52926;SDS011;40783;49.710;8.842;2023-03-05T06:06:23;12.63;;;7.45;;
52926;SDS011;40783;49.710;8.842;2023-03-05T06:08:49;14.63;;;8.55;;
52926;SDS011;40783;49.710;8.842;2023-03-05T06:11:18;16.95;;;8.82;;
52926;SDS011;40783;49.710;8.842;2023-03-05T06:13:47;16.38;;;8.35;;
52926;SDS011;40783;49.710;8.842;2023-03-05T06:16:16;19.08;;;10.45;;
52926;SDS011;40783;49.710;8.842;2023-03-05T06:18:45;17.83;;;9.82;;
52926;SDS011;40783;49.710;8.842;2023-03-05T06:21:12;15.07;;;9.03;;
52926;SDS011;40783;49.710;8.842;2023-03-05T06:23:39;26.17;;;10.93;;
52926;SDS011;40783;49.710;8.842;2023-03-05T06:26:07;20.73;;;10.32;;
52926;SDS011;40783;49.710;8.842;2023-03-05T06:28:37;35.90;;;11.52;;
52926;SDS011;40783;49.710;8.842;2023-03-05T06:31:07;17.10;;;9.57;;
52926;SDS011;40783;49.710;8.842;2023-03-05T06:33:34;29.83;;;10.38;;
52926;SDS011;40783;49.710;8.842;2023-03-05T06:36:03;21.93;;;13.07;;
52926;SDS011;40783;49.710;8.842;2023-03-05T06:38:30;19.75;;;11.75;;
52926;SDS011;40783;49.710;8.842;2023-03-05T06:40:59;20.17;;;12.70;;
52926;SDS011;40783;49.710;8.842;2023-03-05T06:43:35;26.05;;;13.45;;
52926;SDS011;40783;49.710;8.842;2023-03-05T06:46:10;17.20;;;12.15;;
52926;SDS011;40783;49.710;8.842;2023-03-05T06:48:39;17.55;;;12.07;;
52926;SDS011;40783;49.710;8.842;2023-03-05T06:51:11;21.17;;;13.48;;
52926;SDS011;40783;49.710;8.842;2023-03-05T06:53:38;21.70;;;11.68;;
52926;SDS011;40783;49.710;8.842;2023-03-05T06:56:05;22.77;;;11.90;;
52926;SDS011;40783;49.710;8.842;2023-03-05T06:58:33;22.13;;;14.25;;
52926;SDS011;40783;49.710;8.842;2023-03-05T07:01:03;24.58;;;12.32;;
52926;SDS011;40783;49.710;8.842;2023-03-05T07:03:30;22.58;;;12.65;;
52926;SDS011;40783;49.710;8.842;2023-03-05T07:05:56;21.43;;;12.73;;
52926;SDS011;40783;49.710;8.842;2023-03-05T07:08:21;24.30;;;13.90;;
52926;SDS011;40783;49.710;8.842;2023-03-05T07:10:48;24.42;;;14.05;;
52926;SDS011;40783;49.710;8.842;2023-03-05T07:13:14;22.77;;;12.57;;
52926;SDS011;40783;49.710;8.842;2023-03-05T07:15:39;19.90;;;11.97;;
52926;SDS011;40783;49.710;8.842;2023-03-05T07:18:07;21.33;;;12.82;;
52926;SDS011;40783;49.710;8.842;2023-03-05T07:20:33;20.08;;;13.10;;
52926;SDS011;40783;49.710;8.842;2023-03-05T07:22:59;31.88;;;14.45;;
52926;SDS011;40783;49.710;8.842;2023-03-05T07:25:25;24.07;;;15.30;;
52926;SDS011;40783;49.710;8.842;2023-03-05T07:27:50;25.30;;;13.17;;
52926;SDS011;40783;49.710;8.842;2023-03-05T07:30:20;19.08;;;12.82;;
52926;SDS011;40783;49.710;8.842;2023-03-05T07:32:45;24.05;;;14.10;;
52926;SDS011;40783;49.710;8.842;2023-03-05T07:35:10;27.67;;;15.63;;
52926;SDS011;40783;49.710;8.842;2023-03-05T07:37:36;32.20;;;21.20;;
52926;SDS011;40783;49.710;8.842;2023-03-05T07:40:01;23.67;;;15.63;;
52926;SDS011;40783;49.710;8.842;2023-03-05T07:42:28;20.00;;;15.77;;
52926;SDS011;40783;49.710;8.842;2023-03-05T07:44:54;30.87;;;15.80;;
52926;SDS011;40783;49.710;8.842;2023-03-05T07:47:19;27.10;;;13.73;;
52926;SDS011;40783;49.710;8.842;2023-03-05T07:49:44;29.47;;;17.03;;
52926;SDS011;40783;49.710;8.842;2023-03-05T07:52:10;18.47;;;13.90;;
52926;SDS011;40783;49.710;8.842;2023-03-05T07:54:37;26.73;;;15.60;;
52926;SDS011;40783;49.710;8.842;2023-03-05T08:00:15;27.38;;;15.55;;
52926;SDS011;40783;49.710;8.842;2023-03-05T08:02:41;27.27;;;17.13;;
52926;SDS011;40783;49.710;8.842;2023-03-05T08:05:12;30.17;;;16.80;;
52926;SDS011;40783;49.710;8.842;2023-03-05T08:07:38;28.90;;;18.88;;
52926;SDS011;40783;49.710;8.842;2023-03-05T08:10:07;30.10;;;17.05;;
52926;SDS011;40783;49.710;8.842;2023-03-05T08:12:33;34.42;;;22.67;;
52926;SDS011;40783;49.710;8.842;2023-03-05T08:14:58;35.47;;;20.80;;
52926;SDS011;40783;49.710;8.842;2023-03-05T08:17:24;26.40;;;18.93;;
52926;SDS011;40783;49.710;8.842;2023-03-05T08:19:49;23.87;;;17.67;;
52926;SDS011;40783;49.710;8.842;2023-03-05T08:22:19;28.92;;;17.45;;
52926;SDS011;40783;49.710;8.842;2023-03-05T08:24:47;33.25;;;18.20;;
52926;SDS011;40783;49.710;8.842;2023-03-05T08:27:14;24.75;;;17.10;;
52926;SDS011;40783;49.710;8.842;2023-03-05T08:29:39;26.40;;;17.60;;
52926;SDS011;40783;49.710;8.842;2023-03-05T08:32:07;26.40;;;8.63;;
52926;SDS011;40783;49.710;8.842;2023-03-05T08:34:32;21.27;;;9.43;;
52926;SDS011;40783;49.710;8.842;2023-03-05T08:36:58;13.17;;;6.50;;
52926;SDS011;40783;49.710;8.842;2023-03-05T08:39:23;15.27;;;8.73;;
52926;SDS011;40783;49.710;8.842;2023-03-05T08:41:49;19.83;;;7.50;;
52926;SDS011;40783;49.710;8.842;2023-03-05T08:44:14;18.70;;;8.73;;
52926;SDS011;40783;49.710;8.842;2023-03-05T08:46:39;10.93;;;7.80;;
52926;SDS011;40783;49.710;8.842;2023-03-05T08:49:05;16.57;;;8.63;;
52926;SDS011;40783;49.710;8.842;2023-03-05T08:51:36;12.65;;;7.43;;
52926;SDS011;40783;49.710;8.842;2023-03-05T08:54:01;14.93;;;6.90;;
52926;SDS011;40783;49.710;8.842;2023-03-05T08:56:30;20.60;;;7.68;;
52926;SDS011;40783;49.710;8.842;2023-03-05T08:58:58;19.83;;;8.80;;
52926;SDS011;40783;49.710;8.842;2023-03-05T09:01:23;15.40;;;7.07;;
52926;SDS011;40783;49.710;8.842;2023-03-05T09:03:51;11.73;;;7.80;;
52926;SDS011;40783;49.710;8.842;2023-03-05T09:06:17;13.73;;;7.00;;
52926;SDS011;40783;49.710;8.842;2023-03-05T09:08:42;22.33;;;9.63;;
52926;SDS011;40783;49.710;8.842;2023-03-05T09:11:08;19.97;;;9.13;;
52926;SDS011;40783;49.710;8.842;2023-03-05T09:13:36;12.88;;;7.32;;
52926;SDS011;40783;49.710;8.842;2023-03-05T09:16:03;15.60;;;8.30;;
52926;SDS011;40783;49.710;8.842;2023-03-05T09:18:33;23.10;;;12.02;;
52926;SDS011;40783;49.710;8.842;2023-03-05T09:21:04;18.42;;;12.52;;
52926;SDS011;40783;49.710;8.842;2023-03-05T09:23:34;23.15;;;11.38;;
52926;SDS011;40783;49.710;8.842;2023-03-05T09:26:00;15.53;;;8.60;;
52926;SDS011;40783;49.710;8.842;2023-03-05T09:28:26;21.52;;;10.98;;
52926;SDS011;40783;49.710;8.842;2023-03-05T09:30:51;15.93;;;9.90;;
52926;SDS011;40783;49.710;8.842;2023-03-05T09:33:17;22.10;;;10.43;;
52926;SDS011;40783;49.710;8.842;2023-03-05T09:35:44;20.40;;;9.57;;
52926;SDS011;40783;49.710;8.842;2023-03-05T09:38:09;15.35;;;10.07;;
52926;SDS011;40783;49.710;8.842;2023-03-05T09:40:58;22.33;;;11.13;;
52926;SDS011;40783;49.710;8.842;2023-03-05T09:43:34;15.15;;;9.68;;
52926;SDS011;40783;49.710;8.842;2023-03-05T09:48:57;17.00;;;11.38;;
52926;SDS011;40783;49.710;8.842;2023-03-05T09:51:34;17.75;;;9.50;;
52926;SDS011;40783;49.710;8.842;2023-03-05T09:54:08;23.02;;;9.60;;
52926;SDS011;40783;49.710;8.842;2023-03-05T09:56:41;17.25;;;9.02;;
52926;SDS011;40783;49.710;8.842;2023-03-05T09:59:22;18.42;;;10.15;;
52926;SDS011;40783;49.710;8.842;2023-03-05T10:01:57;18.60;;;10.13;;
52926;SDS011;40783;49.710;8.842;2023-03-05T10:07:25;18.17;;;11.40;;
52926;SDS011;40783;49.710;8.842;2023-03-05T10:10:11;16.45;;;9.68;;
52926;SDS011;40783;49.710;8.842;2023-03-05T10:15:16;17.35;;;10.23;;
52926;SDS011;40783;49.710;8.842;2023-03-05T10:17:56;14.32;;;9.45;;
52926;SDS011;40783;49.710;8.842;2023-03-05T10:20:43;17.95;;;8.65;;
52926;SDS011;40783;49.710;8.842;2023-03-05T10:23:21;20.05;;;7.70;;
52926;SDS011;40783;49.710;8.842;2023-03-05T10:40:01;16.45;;;7.75;;
52926;SDS011;40783;49.710;8.842;2023-03-05T10:45:45;10.20;;;6.25;;
52926;SDS011;40783;49.710;8.842;2023-03-05T10:48:55;10.60;;;6.47;;
52926;SDS011;40783;49.710;8.842;2023-03-05T10:51:30;11.35;;;6.82;;
52926;SDS011;40783;49.710;8.842;2023-03-05T10:56:48;16.75;;;7.53;;
52926;SDS011;40783;49.710;8.842;2023-03-05T10:59:15;13.50;;;7.55;;
52926;SDS011;40783;49.710;8.842;2023-03-05T11:01:41;10.13;;;7.07;;
52926;SDS011;40783;49.710;8.842;2023-03-05T11:04:27;16.10;;;7.35;;
52926;SDS011;40783;49.710;8.842;2023-03-05T11:06:56;11.65;;;6.68;;
52926;SDS011;40783;49.710;8.842;2023-03-05T11:09:27;14.27;;;7.72;;
52926;SDS011;40783;49.710;8.842;2023-03-05T11:14:28;11.70;;;7.28;;
52926;SDS011;40783;49.710;8.842;2023-03-05T11:16:57;11.60;;;5.53;;
52926;SDS011;40783;49.710;8.842;2023-03-05T11:19:27;17.45;;;7.55;;
52926;SDS011;40783;49.710;8.842;2023-03-05T11:27:50;7.57;;;5.25;;
52926;SDS011;40783;49.710;8.842;2023-03-05T11:30:28;9.07;;;4.75;;
52926;SDS011;40783;49.710;8.842;2023-03-05T11:33:19;18.33;;;5.43;;
52926;SDS011;40783;49.710;8.842;2023-03-05T11:38:21;16.10;;;5.75;;
52926;SDS011;40783;49.710;8.842;2023-03-05T11:40:54;14.55;;;6.55;;
52926;SDS011;40783;49.710;8.842;2023-03-05T11:43:22;11.32;;;6.32;;
52926;SDS011;40783;49.710;8.842;2023-03-05T11:45:52;24.45;;;7.45;;
52926;SDS011;40783;49.710;8.842;2023-03-05T11:48:26;13.55;;;6.95;;
52926;SDS011;40783;49.710;8.842;2023-03-05T11:50:57;10.55;;;6.38;;
52926;SDS011;40783;49.710;8.842;2023-03-05T11:53:26;12.82;;;7.10;;
52926;SDS011;40783;49.710;8.842;2023-03-05T11:56:02;13.20;;;6.68;;
52926;SDS011;40783;49.710;8.842;2023-03-05T11:58:39;14.10;;;6.03;;
52926;SDS011;40783;49.710;8.842;2023-03-05T12:01:09;16.95;;;6.88;;
52926;SDS011;40783;49.710;8.842;2023-03-05T12:03:48;8.98;;;4.90;;
52926;SDS011;40783;49.710;8.842;2023-03-05T12:06:27;7.78;;;5.25;;
52926;SDS011;40783;49.710;8.842;2023-03-05T12:09:38;8.98;;;4.25;;
52926;SDS011;40783;49.710;8.842;2023-03-05T12:14:57;6.82;;;3.35;;
52926;SDS011;40783;49.710;8.842;2023-03-05T12:17:36;8.40;;;4.57;;
52926;SDS011;40783;49.710;8.842;2023-03-05T12:20:11;8.15;;;4.25;;
52926;SDS011;40783;49.710;8.842;2023-03-05T12:22:42;7.10;;;3.78;;
52926;SDS011;40783;49.710;8.842;2023-03-05T12:28:12;6.88;;;3.78;;
52926;SDS011;40783;49.710;8.842;2023-03-05T12:31:00;7.03;;;3.30;;
52926;SDS011;40783;49.710;8.842;2023-03-05T12:38:44;10.18;;;4.10;;
52926;SDS011;40783;49.710;8.842;2023-03-05T12:46:36;8.32;;;4.32;;
52926;SDS011;40783;49.710;8.842;2023-03-05T13:03:36;10.73;;;5.63;;
52926;SDS011;40783;49.710;8.842;2023-03-05T13:08:58;7.93;;;4.60;;
52926;SDS011;40783;49.710;8.842;2023-03-05T13:11:31;8.45;;;5.10;;
52926;SDS011;40783;49.710;8.842;2023-03-05T13:13:58;8.73;;;5.60;;
52926;SDS011;40783;49.710;8.842;2023-03-05T13:16:26;11.32;;;6.70;;
52926;SDS011;40783;49.710;8.842;2023-03-05T13:18:55;7.53;;;4.30;;
52926;SDS011;40783;49.710;8.842;2023-03-05T13:21:27;24.33;;;6.80;;
52926;SDS011;40783;49.710;8.842;2023-03-05T13:23:59;14.15;;;6.47;;
52926;SDS011;40783;49.710;8.842;2023-03-05T13:26:29;13.00;;;6.20;;
52926;SDS011;40783;49.710;8.842;2023-03-05T13:29:05;9.63;;;6.18;;
52926;SDS011;40783;49.710;8.842;2023-03-05T13:31:45;10.93;;;4.85;;
52926;SDS011;40783;49.710;8.842;2023-03-05T13:34:28;13.07;;;5.78;;
52926;SDS011;40783;49.710;8.842;2023-03-05T13:39:35;10.30;;;5.57;;
52926;SDS011;40783;49.710;8.842;2023-03-05T13:42:13;10.73;;;5.43;;
52926;SDS011;40783;49.710;8.842;2023-03-05T13:44:41;8.57;;;4.53;;
52926;SDS011;40783;49.710;8.842;2023-03-05T13:47:08;7.53;;;5.15;;
52926;SDS011;40783;49.710;8.842;2023-03-05T13:49:44;11.80;;;6.13;;
52926;SDS011;40783;49.710;8.842;2023-03-05T13:52:22;9.13;;;4.75;;
52926;SDS011;40783;49.710;8.842;2023-03-05T13:54:51;9.80;;;3.70;;
52926;SDS011;40783;49.710;8.842;2023-03-05T14:00:03;9.18;;;4.63;;
52926;SDS011;40783;49.710;8.842;2023-03-05T14:02:52;6.53;;;3.53;;
52926;SDS011;40783;49.710;8.842;2023-03-05T14:05:20;9.10;;;4.70;;
52926;SDS011;40783;49.710;8.842;2023-03-05T14:07:47;12.17;;;6.43;;
52926;SDS011;40783;49.710;8.842;2023-03-05T14:10:25;9.52;;;3.53;;
52926;SDS011;40783;49.710;8.842;2023-03-05T14:12:52;7.18;;;3.58;;
52926;SDS011;40783;49.710;8.842;2023-03-05T14:15:28;6.80;;;3.38;;
52926;SDS011;40783;49.710;8.842;2023-03-05T14:20:36;6.90;;;3.10;;
52926;SDS011;40783;49.710;8.842;2023-03-05T14:25:49;5.97;;;3.63;;
52926;SDS011;40783;49.710;8.842;2023-03-05T14:30:49;8.30;;;3.60;;
52926;SDS011;40783;49.710;8.842;2023-03-05T14:33:31;8.13;;;3.65;;
52926;SDS011;40783;49.710;8.842;2023-03-05T14:38:48;12.57;;;7.35;;
52926;SDS011;40783;49.710;8.842;2023-03-05T14:41:21;11.88;;;5.32;;
52926;SDS011;40783;49.710;8.842;2023-03-05T14:43:57;9.10;;;4.72;;
52926;SDS011;40783;49.710;8.842;2023-03-05T14:46:23;10.85;;;4.57;;
52926;SDS011;40783;49.710;8.842;2023-03-05T14:48:51;11.18;;;5.03;;
52926;SDS011;40783;49.710;8.842;2023-03-05T14:51:16;10.60;;;4.00;;
52926;SDS011;40783;49.710;8.842;2023-03-05T14:53:43;10.55;;;4.20;;
52926;SDS011;40783;49.710;8.842;2023-03-05T14:56:23;8.70;;;3.95;;
52926;SDS011;40783;49.710;8.842;2023-03-05T14:58:50;9.80;;;4.28;;
52926;SDS011;40783;49.710;8.842;2023-03-05T15:01:16;9.33;;;5.40;;
52926;SDS011;40783;49.710;8.842;2023-03-05T15:03:41;10.57;;;4.67;;
52926;SDS011;40783;49.710;8.842;2023-03-05T15:06:15;11.45;;;5.57;;
52926;SDS011;40783;49.710;8.842;2023-03-05T15:08:44;10.63;;;4.63;;
52926;SDS011;40783;49.710;8.842;2023-03-05T15:11:12;12.63;;;5.53;;
52926;SDS011;40783;49.710;8.842;2023-03-05T15:13:37;12.57;;;5.23;;
52926;SDS011;40783;49.710;8.842;2023-03-05T15:16:03;5.50;;;3.93;;
52926;SDS011;40783;49.710;8.842;2023-03-05T15:18:30;8.63;;;3.00;;
52926;SDS011;40783;49.710;8.842;2023-03-05T15:20:57;7.35;;;3.20;;
52926;SDS011;40783;49.710;8.842;2023-03-05T15:23:23;7.97;;;3.57;;
52926;SDS011;40783;49.710;8.842;2023-03-05T15:25:53;6.55;;;2.85;;
52926;SDS011;40783;49.710;8.842;2023-03-05T15:28:21;8.90;;;4.00;;
52926;SDS011;40783;49.710;8.842;2023-03-05T15:30:46;7.43;;;3.33;;
52926;SDS011;40783;49.710;8.842;2023-03-05T15:33:13;7.47;;;4.07;;
52926;SDS011;40783;49.710;8.842;2023-03-05T15:35:40;9.63;;;4.90;;
52926;SDS011;40783;49.710;8.842;2023-03-05T15:38:06;6.40;;;4.50;;
52926;SDS011;40783;49.710;8.842;2023-03-05T15:40:32;11.02;;;4.53;;
52926;SDS011;40783;49.710;8.842;2023-03-05T15:43:00;9.43;;;5.85;;
52926;SDS011;40783;49.710;8.842;2023-03-05T15:45:26;7.90;;;4.90;;
52926;SDS011;40783;49.710;8.842;2023-03-05T15:47:52;11.85;;;8.45;;
52926;SDS011;40783;49.710;8.842;2023-03-05T15:50:18;11.75;;;6.03;;
52926;SDS011;40783;49.710;8.842;2023-03-05T15:52:45;7.78;;;4.00;;
52926;SDS011;40783;49.710;8.842;2023-03-05T15:55:13;5.57;;;3.92;;
52926;SDS011;40783;49.710;8.842;2023-03-05T15:57:45;12.17;;;4.77;;
52926;SDS011;40783;49.710;8.842;2023-03-05T16:00:12;7.47;;;4.88;;
52926;SDS011;40783;49.710;8.842;2023-03-05T16:02:41;17.33;;;5.30;;
52926;SDS011;40783;49.710;8.842;2023-03-05T16:05:07;10.87;;;6.20;;
52926;SDS011;40783;49.710;8.842;2023-03-05T16:07:36;11.13;;;5.40;;
52926;SDS011;40783;49.710;8.842;2023-03-05T16:10:04;10.15;;;4.78;;
52926;SDS011;40783;49.710;8.842;2023-03-05T16:15:05;9.00;;;5.18;;
52926;SDS011;40783;49.710;8.842;2023-03-05T16:20:54;14.05;;;6.00;;
52926;SDS011;40783;49.710;8.842;2023-03-05T16:23:21;10.80;;;4.68;;
52926;SDS011;40783;49.710;8.842;2023-03-05T16:25:47;13.90;;;5.30;;
52926;SDS011;40783;49.710;8.842;2023-03-05T16:28:14;9.07;;;5.18;;
52926;SDS011;40783;49.710;8.842;2023-03-05T16:30:42;9.50;;;5.20;;